Tiempo atmosférico en la estación meteorológica de Almendralejo, Badajoz (371 m.)



Fecha
DESCASC
Temp. máxima en grados centígrados (hora)
DESCASC
Temp. mínima en grados centígrados (hora)
DESCASC
Temp. media en grados centígrados
DESCASC
Racha de viento máxima en m/sg (hora)
DESCASC
Velocidad máxima media en intervalos de 10 minutos(hora)
DESCASC
Precipitaciones diarias en mm
DESCASC
Precipitaciones de 00:00 a 06:00 en mm
DESCASC
Precipitaciones de 06:00 a 12:00 en mm
DESCASC
Precipitaciones de 12:00 a 18:00 en mm
DESCASC
Precipitaciones de 18:00 a 24:00 en mm
DESCASC
06-07-2020 40.4 (17:20) 23.5 (07:10) 32 8.89 (19:50) 5.83 (19:50) 0 0 0 0 0
05-07-2020 39.4 (16:20) 19.5 (07:20) 29.5 8.61 (15:40) 5 (16:40) 0 0 0 0 0
04-07-2020 36.5 (18:00) 16.7 (07:30) 26.6 7.22 (19:30) 4.72 (21:00) 0 0 0 0 0
03-07-2020 32.9 (19:00) 13.3 (07:10) 23.1 9.17 (00:20) 5.83 (00:20) 0 0 0 0 0
02-07-2020 32.1 (17:10) 17.3 (00:00) 24.7 12.22 (16:30) 7.22 (20:40) 0 0 0 0 0
01-07-2020 34.7 (19:00) 18.3 (00:00) 26.5 9.17 (23:50) 6.39 (23:50) 0 0 0 0 0
30-06-2020 37.9 (16:20) 20.8 (00:00) 29.4 13.06 (18:40) 7.22 (18:00) 0 0 0 0 0
29-06-2020 37.3 (16:50) 20 (00:00) 28.6 10.28 (18:30) 6.11 (18:40) 0 0 0 0 0
28-06-2020 34.8 (18:40) 18.1 (00:00) 26.4 8.61 (00:30) 5.83 (00:50) 0 0 0 0 0
27-06-2020 31.7 (18:20) 16.1 (00:00) 23.9 9.72 (22:30) 5.83 (22:00) 0 0 0 0 0
26-06-2020 29.5 (17:10) 13.9 (00:00) 21.7 10.28 (18:30) 6.94 (18:30) 0 0 0 0 0
25-06-2020 34.6 (17:20) 19.1 (00:00) 26.8 12.22 (14:30) 7.5 (20:50) 0 0 0 0 0
24-06-2020 34.6 (18:20) 21.3 (00:00) 27.9 10.83 (17:10) 6.39 (01:10) 0 0 0 0 0
23-06-2020 38.9 (19:00) 20.8 (00:00) 29.9 8.61 (11:40) 5.56 (22:30) 0 0 0 0 0
22-06-2020 38.1 (18:00) 17.1 (00:00) 27.6 8.06 (15:20) 4.17 (20:20) 0 0 0 0 0
21-06-2020 33.4 (19:20) 13.9 (00:00) 23.7 9.72 (01:20) 6.39 (01:00) 0 0 0 0 0
20-06-2020 32.7 (18:30) 12.7 (00:00) 22.7 9.44 (19:20) 5.83 (21:40) 0 0 0 0 0
19-06-2020 30.3 (18:30) 12.7 (00:00) 21.5 10 (16:30) 6.94 (00:10) 0 0 0 0 0
18-06-2020 29 (18:10) 12.5 (00:00) 20.8 10.83 (23:00) 7.22 (23:50) 0 0 0 0 0
17-06-2020 26.3 (17:20) 12.5 (00:00) 19.4 10.56 (14:30) 6.11 (18:20) 0 0 0 0 0
16-06-2020 26.8 (17:50) 13.2 (00:00) 20 11.39 (16:10) 7.22 (13:40) 0 0 0 0 0
15-06-2020 27.5 (17:30) 12.4 (00:00) 19.9 11.11 (15:30) 5.83 (17:40) 0 0 0 0 0
14-06-2020 26.8 (18:00) 12 (00:00) 19.4 10.28 (15:10) 6.11 (17:20) 0 0 0 0 0
13-06-2020 23.9 (17:20) 10.9 (00:00) 17.4 8.33 (20:30) 5 (20:30) 0 0 0 0 0
12-06-2020 21.2 (17:30) 11.5 (00:00) 16.4 11.39 (18:40) 7.5 (00:20) 0 0 0 0 0
11-06-2020 24.5 (15:10) 11.8 (00:00) 18.2 15 (19:30) 8.89 (20:50) 0 0 0 0 0

Gráficas

Temp. máximas Temp. mínimas Temp. medias Precipitaciones Rachas de viento máximas Velocidades máximas media en intervalos de 10 minutos

Datos horarios

Fecha y hora oficial Temperatura (ºC) Velocidad del viento (km/h) Dirección del viento Racha (km/h) Dirección de racha Precipitación (mm) Presión (hPa) Tendencia (hPa) Humedad (%)
2020-07-10 23:00:00 -- -- -- -- -- -- -- -- --
2020-07-10 22:00:00 -- -- -- -- -- -- -- -- --
2020-07-10 21:00:00 -- -- -- -- -- -- -- -- --
2020-07-10 20:00:00 36.6 6 Noroeste 22 Noroeste 0 -- -- 23
2020-07-10 19:00:00 37.2 10 Norte 27 Nordeste 0 -- -- 21
2020-07-10 18:00:00 37 15 Norte 34 Norte 0 -- -- 21
2020-07-10 17:00:00 36.9 13 Noroeste 28 Norte 0 -- -- 22
2020-07-10 16:00:00 36.1 8 Este 23 Nordeste 0 -- -- 24
2020-07-10 15:00:00 35.3 9 Norte 27 Nordeste 0 -- -- 24
2020-07-10 14:00:00 34 9 Nordeste 19 Norte 0 -- -- 26
2020-07-10 13:00:00 32.1 8 Nordeste 17 Norte 0 -- -- 33
2020-07-10 12:00:00 30.2 8 Norte 14 Norte 0 -- -- 38
2020-07-10 11:00:00 27.8 4 Norte 10 Noroeste 0 -- -- 44
2020-07-10 10:00:00 24.9 3 Noroeste 8 Noroeste 0 -- -- 52
2020-07-10 09:00:00 22.9 5 Noroeste 12 Noroeste 0 -- -- 58
2020-07-10 08:00:00 20.6 6 Noroeste 13 Norte 0 -- -- 62
2020-07-10 07:00:00 20.2 10 Nordeste 13 Nordeste 0 -- -- 62
2020-07-10 06:00:00 21.7 10 Noroeste 14 Noroeste 0 -- -- 59
2020-07-10 05:00:00 21.5 7 Oeste 11 Noroeste 0 -- -- 57
2020-07-10 04:00:00 23.1 8 Noroeste 15 Noroeste 0 -- -- 56
2020-07-10 03:00:00 23.8 8 Noroeste 18 Noroeste 0 -- -- 50
2020-07-10 02:00:00 24.9 14 Noroeste 22 Noroeste 0 -- -- 44
2020-07-10 01:00:00 26 13 Noroeste 25 Noroeste 0 -- -- 33
2020-07-10 00:00:00 27.5 8 Noroeste 12 Noroeste 0 -- -- 25
2020-07-09 23:00:00 28.2 9 Noroeste 11 Noroeste 0 -- -- 25
2020-07-09 22:00:00 30.2 6 Noroeste 17 Norte 0 -- -- 23
2020-07-09 21:00:00 32.3 6 Norte 13 Noroeste 0 -- -- 24
2020-07-09 20:00:00 33.7 7 Este 23 Este 0 -- -- 16
2020-07-09 19:00:00 34.2 11 Este 20 Este 0 -- -- 16
2020-07-09 18:00:00 34.3 14 Este 24 Nordeste 0 -- -- 17
2020-07-09 17:00:00 33.9 4 Nordeste 21 Este 0 -- -- 20
2020-07-09 16:00:00 33.2 6 Sudoeste 18 Este 0 -- -- 25
2020-07-09 15:00:00 32.4 9 Noroeste 20 Norte 0 -- -- 27
2020-07-09 14:00:00 30.7 8 Nordeste 15 Nordeste 0 -- -- 31
2020-07-09 13:00:00 28.9 3 Sudoeste 14 Nordeste 0 -- -- 35
2020-07-09 12:00:00 26.4 4 Este 15 Nordeste 0 -- -- 43
2020-07-09 11:00:00 23.9 4 Nordeste 12 Nordeste 0 -- -- 54
2020-07-09 10:00:00 21.3 7 Norte 14 Nordeste 0 -- -- 66
2020-07-09 09:00:00 20 5 Nordeste 10 Noroeste 0 -- -- 71
2020-07-09 08:00:00 17.9 3 Noroeste 11 Nordeste 0 -- -- 74
2020-07-09 07:00:00 18.2 5 Norte 11 Norte 0 -- -- 60
2020-07-09 06:00:00 18.8 4 Oeste 11 Sudoeste 0 -- -- 60
2020-07-09 05:00:00 18.8 9 Sudoeste 11 Sudoeste 0 -- -- 58
2020-07-09 04:00:00 20.6 6 Sudoeste 18 Oeste 0 -- -- 60
2020-07-09 03:00:00 21.9 8 Noroeste 16 Oeste 0 -- -- 58
2020-07-09 02:00:00 22.8 4 Noroeste 22 Noroeste 0 -- -- 49
2020-07-09 01:00:00 24.5 11 Noroeste 23 Noroeste 0 -- -- 45
2020-07-09 00:00:00 26 15 Noroeste 29 Oeste 0 -- -- 40
2020-07-08 23:00:00 27.7 10 Noroeste 26 Oeste 0 -- -- 33
2020-07-08 22:00:00 29.5 17 Noroeste 31 Noroeste 0 -- -- 27
2020-07-08 21:00:00 31.4 16 Noroeste 36 Noroeste 0 -- -- 22
2020-07-08 20:00:00 33.6 22 Noroeste 43 Noroeste 0 -- -- 18
2020-07-08 19:00:00 35 21 Noroeste 40 Oeste 0 -- -- 18
2020-07-08 18:00:00 35.7 25 Noroeste 52 Oeste 0 -- -- 15
2020-07-08 17:00:00 36.5 21 Noroeste 39 Noroeste 0 -- -- 14
2020-07-08 16:00:00 35.6 19 Noroeste 40 Noroeste 0 -- -- 22
2020-07-08 15:00:00 34.2 19 Norte 32 Norte 0 -- -- 26
2020-07-08 14:00:00 33.8 14 Noroeste 25 Noroeste 0 -- -- 29
2020-07-08 13:00:00 30.7 10 Noroeste 17 Noroeste 0 -- -- 34
2020-07-08 12:00:00 30.7 6 Norte 18 Noroeste 0 -- -- 33
2020-07-08 11:00:00 29.4 6 Noroeste 12 Noroeste 0 -- -- 38
2020-07-08 10:00:00 27.4 5 Noroeste 9 Oeste 0 -- -- 42
2020-07-08 09:00:00 24.6 7 Oeste 12 Noroeste 0 -- -- 47
2020-07-08 08:00:00 23.1 8 Noroeste 14 Noroeste 0 -- -- 48
2020-07-08 07:00:00 23.6 9 Noroeste 18 Noroeste 0 -- -- 47
2020-07-08 06:00:00 24.6 10 Noroeste 22 Noroeste 0 -- -- 42
2020-07-08 05:00:00 25.8 12 Noroeste 22 Noroeste 0 -- -- 37
2020-07-08 04:00:00 26.7 14 Noroeste 23 Noroeste 0 -- -- 34
2020-07-08 03:00:00 28.1 13 Noroeste 20 Noroeste 0 -- -- 32
2020-07-08 02:00:00 29.6 8 Noroeste 17 Noroeste 0 -- -- 27
2020-07-08 01:00:00 30.9 13 Noroeste 20 Noroeste 0 -- -- 22
2020-07-08 00:00:00 31.5 7 Noroeste 18 Noroeste 0 -- -- 19
2020-07-07 23:00:00 32.8 8 Oeste 12 Noroeste 0 -- -- 18
2020-07-07 22:00:00 35.1 9 Noroeste 17 Noroeste 0 -- -- 16
2020-07-07 21:00:00 37.4 13 Noroeste 24 Oeste 0 -- -- 15
2020-07-07 20:00:00 39.2 15 Noroeste 30 Noroeste 0 -- -- 13
2020-07-07 19:00:00 40.4 17 Noroeste 31 Noroeste 0 -- -- 13
2020-07-07 18:00:00 40.8 17 Noroeste 34 Noroeste 0 -- -- 13
2020-07-07 17:00:00 41 16 Noroeste 37 Noroeste 0 -- -- 12
2020-07-07 16:00:00 40.7 22 Noroeste 41 Noroeste 0 -- -- 12
2020-07-07 15:00:00 39.6 15 Noroeste 34 Norte 0 -- -- 15
2020-07-07 14:00:00 38 9 Noroeste 25 Noroeste 0 -- -- 16
2020-07-07 13:00:00 37 10 Noroeste 22 Noroeste 0 -- -- 15
2020-07-07 12:00:00 34.5 3 Norte 8 Noroeste 0 -- -- 22
2020-07-07 11:00:00 32 5 Norte 9 Norte 0 -- -- 29
2020-07-07 10:00:00 29.8 0 Calma 7 Sur 0 -- -- 32
2020-07-07 09:00:00 25.9 4 Sur 9 Sudoeste 0 -- -- 35
2020-07-07 08:00:00 23.1 9 Sudoeste 12 Sudoeste 0 -- -- 37
2020-07-07 07:00:00 22.6 8 Sudoeste 12 Sudoeste 0 -- -- 35
2020-07-07 06:00:00 24.1 10 Sudoeste 11 Sudoeste 0 -- -- 32
2020-07-07 05:00:00 24.2 9 Oeste 12 Oeste 0 -- -- 33
2020-07-07 04:00:00 24.3 9 Oeste 12 Oeste 0 -- -- 37
2020-07-07 03:00:00 25.2 8 Sudoeste 11 Oeste 0 -- -- 38
2020-07-07 02:00:00 28.2 5 Noroeste 24 Noroeste 0 -- -- 34
2020-07-07 01:00:00 29.4 19 Noroeste 27 Noroeste 0 -- -- 32
2020-07-07 00:00:00 31 14 Norte 32 Noroeste 0 -- -- 31
2020-07-06 23:00:00 32.4 13 Noroeste 21 Norte 0 -- -- 23
2020-07-06 22:00:00 34.3 6 Norte 17 Norte 0 -- -- 20
2020-07-06 21:00:00 37 12 Nordeste 26 Norte 0 -- -- 17
2020-07-06 20:00:00 38.8 15 Norte 32 Norte 0 -- -- 16
2020-07-06 19:00:00 39.3 18 Norte 32 Noroeste 0 -- -- 15
2020-07-06 18:00:00 39.9 12 Norte 28 Noroeste 0 -- -- 16
2020-07-06 17:00:00 40.2 8 Oeste 20 Noroeste 0 -- -- 16
2020-07-06 16:00:00 40 8 Noroeste 26 Nordeste 0 -- -- 15
2020-07-06 15:00:00 38.6 9 Este 20 Nordeste 0 -- -- 18
2020-07-06 14:00:00 37.8 8 Nordeste 17 Norte 0 -- -- 18
2020-07-06 13:00:00 36.6 8 Noroeste 16 Noroeste 0 -- -- 24
2020-07-06 12:00:00 33.8 3 Noroeste 9 Nordeste 0 -- -- 26
2020-07-06 11:00:00 31.5 4 Oeste 10 Oeste 0 -- -- 32
2020-07-06 10:00:00 28.8 4 Oeste 8 Norte 0 -- -- 36
2020-07-06 09:00:00 25.8 4 Sudoeste 5 Sur 0 -- -- 39
2020-07-06 08:00:00 24.2 3 Norte 11 Noroeste 0 -- -- 41
2020-07-06 07:00:00 23.6 9 Noroeste 13 Noroeste 0 -- -- 41
2020-07-06 06:00:00 24.7 10 Noroeste 14 Noroeste 0 -- -- 38
2020-07-06 05:00:00 25.7 6 Noroeste 13 Noroeste 0 -- -- 37
2020-07-06 04:00:00 26.2 9 Noroeste 13 Noroeste 0 -- -- 36
2020-07-06 03:00:00 26.8 10 Noroeste 15 Noroeste 0 -- -- 34
2020-07-06 02:00:00 27.4 12 Oeste 19 Oeste 0 -- -- 34
2020-07-06 01:00:00 28.6 15 Oeste 26 Noroeste 0 -- -- 28
2020-07-06 00:00:00 30.7 3 Este 8 Nordeste 0 -- -- 25
2020-07-05 23:00:00 31.5 8 Este 11 Nordeste 0 -- -- 24
2020-07-05 22:00:00 33.2 8 Nordeste 22 Norte 0 -- -- 21
2020-07-05 21:00:00 36.4 14 Norte 23 Norte 0 -- -- 18
2020-07-05 20:00:00 38.3 7 Sudeste 20 Noroeste 0 -- -- 17
2020-07-05 19:00:00 38.6 10 Norte 31 Norte 0 -- -- 18
2020-07-05 18:00:00 39.2 8 Sudoeste 26 Oeste 0 -- -- 17
2020-07-05 17:00:00 39 8 Oeste 30 Sudoeste 0 -- -- 17
2020-07-05 16:00:00 38.8 12 Sudoeste 31 Sudoeste 0 -- -- 18
2020-07-05 15:00:00 38.1 10 Sudoeste 22 Sudoeste 0 -- -- 18
2020-07-05 14:00:00 37.4 12 Sur 21 Sur 0 -- -- 19
2020-07-05 13:00:00 36.4 9 Sur 22 Sur 0 -- -- 22
2020-07-05 12:00:00 33.8 8 Sur 15 Sur 0 -- -- 25
2020-07-05 11:00:00 30.9 7 Sur 13 Sur 0 -- -- 29
2020-07-05 10:00:00 27.1 8 Sudeste 11 Sur 0 -- -- 32
2020-07-05 09:00:00 23.1 6 Sur 9 Sur 0 -- -- 43
2020-07-05 08:00:00 20.2 4 Sur 7 Sudoeste 0 -- -- 48
2020-07-05 07:00:00 20 4 Sudoeste 8 Sudoeste 0 -- -- 47
2020-07-05 06:00:00 20.6 5 Sudoeste 10 Sudoeste 0 -- -- 49
2020-07-05 05:00:00 23.4 7 Noroeste 11 Noroeste 0 -- -- 43
2020-07-05 04:00:00 23.6 4 Noroeste 10 Noroeste 0 -- -- 40
2020-07-05 03:00:00 23.6 10 Oeste 14 Noroeste 0 -- -- 33
2020-07-05 02:00:00 25.2 10 Oeste 17 Noroeste 0 -- -- 25
2020-07-05 01:00:00 25.7 9 Sudoeste 13 Sudoeste 0 -- -- 23
2020-07-05 00:00:00 27.9 6 Norte 10 Norte 0 -- -- 24
2020-07-04 23:00:00 28.1 8 Nordeste 9 Nordeste 0 -- -- 22
2020-07-04 22:00:00 30.6 7 Norte 20 Norte 0 -- -- 21
2020-07-04 21:00:00 33.5 17 Nordeste 25 Nordeste 0 -- -- 18
2020-07-04 20:00:00 35.1 16 Nordeste 26 Norte 0 -- -- 18
2020-07-04 19:00:00 35.9 12 Nordeste 25 Norte 0 -- -- 17
2020-07-04 18:00:00 36.5 8 Norte 24 Nordeste 0 -- -- 18
2020-07-04 17:00:00 35.9 14 Norte 25 Norte 0 -- -- 18
2020-07-04 16:00:00 35.2 7 Sudoeste 19 Oeste 0 -- -- 18
2020-07-04 15:00:00 34.4 6 Sudoeste 24 Este 0 -- -- 19
2020-07-04 14:00:00 33.7 6 Norte 18 Este 0 -- -- 22
2020-07-04 13:00:00 31.9 5 Este 13 Este 0 -- -- 26
2020-07-04 12:00:00 29.4 7 Nordeste 11 Nordeste 0 -- -- 34
2020-07-04 11:00:00 26.7 3 Este 6 Este 0 -- -- 39
2020-07-04 10:00:00 23.6 3 Sur 6 Sur 0 -- -- 48
2020-07-04 09:00:00 20.9 2 Sur 4 Sur 0 -- -- 55
2020-07-04 08:00:00 17.4 3 Sudoeste 4 Sudoeste 0 -- -- 62
2020-07-04 07:00:00 17.6 4 Noroeste 9 Noroeste 0 -- -- 64
2020-07-04 06:00:00 18.2 5 Norte 10 Noroeste 0 -- -- 63
2020-07-04 05:00:00 19.3 6 Noroeste 10 Noroeste 0 -- -- 60
2020-07-04 04:00:00 19.7 6 Noroeste 16 Noroeste 0 -- -- 57
2020-07-04 03:00:00 20.8 11 Noroeste 20 Noroeste 0 -- -- 55
2020-07-04 02:00:00 22.1 13 Noroeste 22 Noroeste 0 -- -- 49
2020-07-04 01:00:00 23.2 12 Noroeste 22 Noroeste 0 -- -- 45
2020-07-04 00:00:00 25.1 13 Noroeste 24 Norte 0 -- -- 39
2020-07-03 23:00:00 26.1 11 Norte 17 Noroeste 0 -- -- 29
2020-07-03 22:00:00 28.1 7 Norte 10 Norte 0 -- -- 24
2020-07-03 21:00:00 30.1 6 Nordeste 15 Norte 0 -- -- 19
2020-07-03 20:00:00 31.6 11 Nordeste 18 Norte 0 -- -- 19
2020-07-03 19:00:00 32.9 5 Noroeste 19 Norte 0 -- -- 20
2020-07-03 18:00:00 31.9 9 Norte 21 Norte 0 -- -- 21
2020-07-03 17:00:00 32 11 Norte 21 Norte 0 -- -- 24
2020-07-03 16:00:00 30.6 9 Nordeste 23 Nordeste 0 -- -- 26
2020-07-03 15:00:00 29.8 9 Norte 17 Norte 0 -- -- 27
2020-07-03 14:00:00 27.9 5 Este 14 Noroeste 0 -- -- 33
2020-07-03 13:00:00 25.8 4 Oeste 14 Nordeste 0 -- -- 40
2020-07-03 12:00:00 23.2 4 Nordeste 14 Norte 0 -- -- 45
2020-07-03 11:00:00 20.8 5 Noroeste 11 Norte 0 -- -- 50
2020-07-03 10:00:00 18.2 7 Norte 13 Norte 0 -- -- 56
2020-07-03 09:00:00 16.8 9 Noroeste 13 Noroeste 0 -- -- 59
2020-07-03 08:00:00 14.4 8 Noroeste 14 Noroeste 0 -- -- 65
2020-07-03 07:00:00 13.4 11 Noroeste 18 Noroeste 0 -- -- 68
2020-07-03 06:00:00 13.6 12 Noroeste 19 Noroeste 0 -- -- 67
2020-07-03 05:00:00 14.2 10 Noroeste 18 Noroeste 0 -- -- 66
2020-07-03 04:00:00 15 11 Noroeste 21 Noroeste 0 -- -- 64
2020-07-03 03:00:00 16.2 12 Noroeste 25 Noroeste 0 -- -- 59
2020-07-03 02:00:00 17.4 12 Noroeste 26 Noroeste 0 -- -- 55
2020-07-03 01:00:00 18.8 17 Noroeste 33 Noroeste 0 -- -- 51
2020-07-03 00:00:00 20.7 21 Noroeste 34 Noroeste 0 -- -- 46
2020-07-02 23:00:00 22.5 20 Noroeste 36 Norte 0 -- -- 39
2020-07-02 22:00:00 24.5 21 Noroeste 40 Norte 0 -- -- 36
2020-07-02 21:00:00 26.8 24 Noroeste 41 Noroeste 0 -- -- 33
2020-07-02 20:00:00 29.1 24 Norte 42 Noroeste 0 -- -- 31
2020-07-02 19:00:00 30.9 23 Noroeste 37 Noroeste 0 -- -- 27
2020-07-02 18:00:00 31.4 21 Norte 38 Norte 0 -- -- 31
2020-07-02 17:00:00 31.8 20 Noroeste 44 Norte 0 -- -- 31
2020-07-02 16:00:00 31.8 21 Noroeste 36 Noroeste 0 -- -- 31
2020-07-02 15:00:00 31.3 18 Noroeste 37 Noroeste 0 -- -- 32
2020-07-02 14:00:00 29.7 20 Noroeste 33 Noroeste 0 -- -- 35
2020-07-02 13:00:00 28.6 15 Noroeste 28 Noroeste 0 -- -- 39
2020-07-02 12:00:00 26.6 14 Noroeste 27 Noroeste 0 -- -- 48
2020-07-02 11:00:00 23.8 12 Noroeste 23 Noroeste 0 -- -- 56
2020-07-02 10:00:00 21.8 14 Noroeste 21 Noroeste 0 -- -- 63
2020-07-02 09:00:00 19.8 13 Noroeste 22 Noroeste 0 -- -- 71
2020-07-02 08:00:00 18.1 13 Noroeste 19 Noroeste 0 -- -- 78
2020-07-02 07:00:00 17.4 13 Noroeste 19 Noroeste 0 -- -- 81
2020-07-02 06:00:00 18.3 6 Noroeste 19 Noroeste 0 -- -- 77
2020-07-02 05:00:00 19.2 10 Noroeste 18 Noroeste 0 -- -- 73
2020-07-02 04:00:00 20.3 14 Noroeste 20 Noroeste 0 -- -- 68
2020-07-02 03:00:00 21.3 12 Noroeste 30 Noroeste 0 -- -- 64
2020-07-02 02:00:00 22.5 19 Noroeste 33 Noroeste 0 -- -- 61
2020-07-02 01:00:00 24 15 Noroeste 31 Noroeste 0 -- -- 54
2020-07-02 00:00:00 25.4 21 Noroeste 33 Noroeste 0 -- -- 47
2020-07-01 23:00:00 27 21 Noroeste 32 Noroeste 0 -- -- 39
2020-07-01 22:00:00 29.1 22 Norte 33 Norte 0 -- -- 34
2020-07-01 21:00:00 31.7 18 Norte 30 Noroeste 0 -- -- 30
2020-07-01 20:00:00 33.9 14 Noroeste 31 Noroeste 0 -- -- 27
2020-07-01 19:00:00 34.7 17 Noroeste 30 Noroeste 0 -- -- 27
2020-07-01 18:00:00 34.5 14 Noroeste 32 Noroeste 0 -- -- 28
2020-07-01 17:00:00 33.6 15 Norte 26 Norte 0 -- -- 30
2020-07-01 16:00:00 33.6 13 Noroeste 27 Nordeste 0 -- -- 32
2020-07-01 15:00:00 32.3 12 Noroeste 26 Noroeste 0 -- -- 35
2020-07-01 14:00:00 30 14 Norte 27 Noroeste 0 -- -- 43
2020-07-01 13:00:00 28.3 13 Noroeste 27 Noroeste 0 -- -- 47
2020-07-01 12:00:00 26.3 12 Noroeste 23 Noroeste 0 -- -- 54
2020-07-01 11:00:00 24.3 9 Noroeste 19 Noroeste 0 -- -- 59
2020-07-01 10:00:00 22.1 9 Noroeste 19 Noroeste 0 -- -- 67
2020-07-01 09:00:00 20.6 12 Noroeste 18 Noroeste 0 -- -- 71
2020-07-01 08:00:00 19.1 8 Noroeste 13 Noroeste 0 -- -- 76
2020-07-01 07:00:00 18.4 8 Noroeste 13 Noroeste 0 -- -- 77
2020-07-01 06:00:00 19.2 7 Noroeste 13 Noroeste 0 -- -- 73
2020-07-01 05:00:00 20.8 8 Noroeste 14 Noroeste 0 -- -- 66
2020-07-01 04:00:00 22.1 10 Oeste 18 Noroeste 0 -- -- 61
2020-07-01 03:00:00 23.4 12 Oeste 19 Oeste 0 -- -- 58
2020-07-01 02:00:00 24.8 10 Noroeste 22 Noroeste 0 -- -- 51
2020-07-01 01:00:00 26.2 9 Noroeste 33 Noroeste 0 -- -- 45
2020-07-01 00:00:00 27.6 18 Noroeste 31 Noroeste 0 -- -- 42
2020-06-30 23:00:00 29.1 19 Noroeste 32 Noroeste 0 -- -- 39
2020-06-30 22:00:00 31.3 18 Norte 33 Noroeste 0 -- -- 34
2020-06-30 21:00:00 33.7 17 Noroeste 32 Noroeste 0 -- -- 23
2020-06-30 20:00:00 35.6 19 Noroeste 39 Noroeste 0 -- -- 22
2020-06-30 19:00:00 36.6 22 Noroeste 47 Noroeste 0 -- -- 23
2020-06-30 18:00:00 37.4 26 Noroeste 44 Noroeste 0 -- -- 22
2020-06-30 17:00:00 37.5 16 Norte 31 Noroeste 0 -- -- 23
2020-06-30 16:00:00 37.4 14 Noroeste 31 Noroeste 0 -- -- 24
2020-06-30 15:00:00 36.9 12 Noroeste 33 Oeste 0 -- -- 25
2020-06-30 14:00:00 35.7 9 Norte 22 Noroeste 0 -- -- 24
2020-06-30 13:00:00 35.2 10 Noroeste 18 Noroeste 0 -- -- 22
2020-06-30 12:00:00 32.8 6 Noroeste 12 Norte 0 -- -- 26
2020-06-30 11:00:00 30.3 5 Noroeste 8 Norte 0 -- -- 34
2020-06-30 10:00:00 27.9 3 Oeste 8 Noroeste 0 -- -- 40
2020-06-30 09:00:00 25.9 0 Calma 4 Sur 0 -- -- 43
2020-06-30 08:00:00 22 3 Sur 9 Sur 0 -- -- 51
2020-06-30 07:00:00 21.1 3 Sudoeste 11 Oeste 0 -- -- 51
2020-06-30 06:00:00 21.5 9 Sudoeste 16 Sudoeste 0 -- -- 54
2020-06-30 05:00:00 21.7 7 Sudoeste 12 Sudoeste 0 -- -- 54
2020-06-30 04:00:00 23.6 4 Noroeste 17 Noroeste 0 -- -- 49
2020-06-30 03:00:00 24.6 8 Noroeste 21 Noroeste 0 -- -- 49
2020-06-30 02:00:00 25.8 15 Noroeste 26 Noroeste 0 -- -- 48
2020-06-30 01:00:00 27.2 18 Noroeste 31 Noroeste 0 -- -- 46
2020-06-30 00:00:00 28.9 16 Noroeste 27 Noroeste 0 -- -- 40
2020-06-29 23:00:00 30.4 12 Norte 21 Norte 0 -- -- 34
2020-06-29 22:00:00 31.7 5 Nordeste 20 Norte 0 -- -- 30
2020-06-29 21:00:00 34 12 Norte 30 Norte 0 -- -- 28
2020-06-29 20:00:00 35.1 18 Norte 32 Norte 0 -- -- 28
2020-06-29 19:00:00 35.8 17 Norte 37 Nordeste 0 -- -- 29
2020-06-29 18:00:00 36.7 13 Norte 27 Norte 0 -- -- 27
2020-06-29 17:00:00 37.1 10 Nordeste 22 Noroeste 0 -- -- 27
2020-06-29 16:00:00 36.6 8 Oeste 24 Oeste 0 -- -- 27
2020-06-29 15:00:00 35.7 6 Norte 15 Oeste 0 -- -- 29
2020-06-29 14:00:00 34.1 7 Noroeste 16 Norte 0 -- -- 32
2020-06-29 13:00:00 32.1 4 Sudeste 14 Norte 0 -- -- 40
2020-06-29 12:00:00 29.5 5 Este 9 Este 0 -- -- 46
2020-06-29 11:00:00 27.1 3 Norte 10 Noroeste 0 -- -- 53
2020-06-29 10:00:00 24.4 6 Norte 10 Noroeste 0 -- -- 61
2020-06-29 09:00:00 22.9 7 Noroeste 14 Noroeste 0 -- -- 66
2020-06-29 08:00:00 20.8 10 Noroeste 15 Noroeste 0 -- -- 73
2020-06-29 07:00:00 20.1 8 Noroeste 15 Noroeste 0 -- -- 75
2020-06-29 06:00:00 20.7 12 Noroeste 18 Noroeste 0 -- -- 72
2020-06-29 05:00:00 21.5 11 Noroeste 18 Noroeste 0 -- -- 69
2020-06-29 04:00:00 22.3 13 Noroeste 19 Noroeste 0 -- -- 66
2020-06-29 03:00:00 23.3 14 Noroeste 23 Noroeste 0 -- -- 63
2020-06-29 02:00:00 24.4 13 Noroeste 26 Noroeste 0 -- -- 59
2020-06-29 01:00:00 25.5 17 Noroeste 28 Noroeste 0 -- -- 56
2020-06-29 00:00:00 27.1 18 Noroeste 30 Noroeste 0 -- -- 51
2020-06-28 23:00:00 28.7 15 Noroeste 27 Norte 0 -- -- 39
2020-06-28 22:00:00 30.6 10 Norte 17 Norte 0 -- -- 33
2020-06-28 21:00:00 32.1 10 Norte 24 Nordeste 0 -- -- 29
2020-06-28 20:00:00 33.9 11 Norte 24 Norte 0 -- -- 28
2020-06-28 19:00:00 34.2 11 Noroeste 23 Norte 0 -- -- 25
2020-06-28 18:00:00 33.9 11 Norte 27 Norte 0 -- -- 26
2020-06-28 17:00:00 34 11 Oeste 27 Noroeste 0 -- -- 29
2020-06-28 16:00:00 33.2 10 Oeste 26 Oeste 0 -- -- 32
2020-06-28 15:00:00 32.1 8 Noroeste 22 Norte 0 -- -- 35
2020-06-28 14:00:00 30.8 8 Nordeste 19 Nordeste 0 -- -- 40
2020-06-28 13:00:00 29.4 7 Este 17 Norte 0 -- -- 45
2020-06-28 12:00:00 27.2 9 Norte 18 Nordeste 0 -- -- 51
2020-06-28 11:00:00 25.1 6 Noroeste 15 Norte 0 -- -- 60
2020-06-28 10:00:00 23 9 Noroeste 14 Noroeste 0 -- -- 66
2020-06-28 09:00:00 20.8 7 Noroeste 16 Noroeste 0 -- -- 75
2020-06-28 08:00:00 18.9 9 Noroeste 15 Noroeste 0 -- -- 83
2020-06-28 07:00:00 18.2 10 Noroeste 18 Noroeste 0 -- -- 84
2020-06-28 06:00:00 18.8 10 Noroeste 19 Noroeste 0 -- -- 81
2020-06-28 05:00:00 19.5 13 Noroeste 22 Noroeste 0 -- -- 78
2020-06-28 04:00:00 20.3 15 Noroeste 27 Noroeste 0 -- -- 76
2020-06-28 03:00:00 21.1 14 Noroeste 23 Noroeste 0 -- -- 70
2020-06-28 02:00:00 22 14 Noroeste 26 Noroeste 0 -- -- 65
2020-06-28 01:00:00 23 19 Noroeste 31 Noroeste 0 -- -- 59
2020-06-28 00:00:00 24.4 18 Noroeste 33 Noroeste 0 -- -- 54
2020-06-27 23:00:00 25.8 19 Noroeste 35 Noroeste 0 -- -- 49
2020-06-27 22:00:00 27.5 21 Noroeste 29 Noroeste 0 -- -- 44
2020-06-27 21:00:00 29.1 15 Noroeste 27 Norte 0 -- -- 39
2020-06-27 20:00:00 30.9 16 Norte 28 Norte 0 -- -- 36
2020-06-27 19:00:00 31 14 Norte 24 Norte 0 -- -- 36
2020-06-27 18:00:00 31.1 17 Norte 31 Norte 0 -- -- 34
2020-06-27 17:00:00 31.1 13 Noroeste 31 Noroeste 0 -- -- 35
2020-06-27 16:00:00 29.8 14 Noroeste 27 Noroeste 0 -- -- 37
2020-06-27 15:00:00 28.3 12 Norte 27 Noroeste 0 -- -- 43
2020-06-27 14:00:00 27.1 12 Noroeste 28 Noroeste 0 -- -- 47
2020-06-27 13:00:00 25.9 13 Noroeste 27 Noroeste 0 -- -- 52
2020-06-27 12:00:00 24 14 Noroeste 25 Noroeste 0 -- -- 58
2020-06-27 11:00:00 21.6 12 Noroeste 23 Noroeste 0 -- -- 66
2020-06-27 10:00:00 19.7 11 Noroeste 23 Noroeste 0 -- -- 74
2020-06-27 09:00:00 17.1 13 Noroeste 23 Noroeste 0 -- -- 83
2020-06-27 08:00:00 16.4 13 Noroeste 22 Noroeste 0 -- -- 85
2020-06-27 07:00:00 16.2 12 Noroeste 23 Noroeste 0 -- -- 84
2020-06-27 06:00:00 16.7 10 Noroeste 27 Noroeste 0 -- -- 80
2020-06-27 05:00:00 17.2 17 Noroeste 26 Noroeste 0 -- -- 77
2020-06-27 04:00:00 17.8 13 Noroeste 24 Noroeste 0 -- -- 70
2020-06-27 03:00:00 18.7 15 Noroeste 23 Noroeste 0 -- -- 62
2020-06-27 02:00:00 19.5 15 Noroeste 24 Noroeste 0 -- -- 59
2020-06-27 01:00:00 20.5 15 Noroeste 28 Noroeste 0 -- -- 51
2020-06-27 00:00:00 21.9 22 Noroeste 35 Noroeste 0 -- -- 48
2020-06-26 23:00:00 23.3 17 Noroeste 28 Noroeste 0 -- -- 45
2020-06-26 22:00:00 24.8 19 Noroeste 31 Noroeste 0 -- -- 38
2020-06-26 21:00:00 26.4 15 Noroeste 33 Noroeste 0 -- -- 32
2020-06-26 20:00:00 27.5 18 Norte 32 Noroeste 0 -- -- 30
2020-06-26 19:00:00 27.4 20 Noroeste 37 Noroeste 0 -- -- 30
2020-06-26 18:00:00 29.1 19 Noroeste 34 Noroeste 0 -- -- 32
2020-06-26 17:00:00 29.2 15 Noroeste 35 Norte 0 -- -- 31
2020-06-26 16:00:00 29 19 Noroeste 33 Noroeste 0 -- -- 31
2020-06-26 15:00:00 28.1 20 Noroeste 35 Noroeste 0 -- -- 34
2020-06-26 14:00:00 26.9 17 Noroeste 32 Noroeste 0 -- -- 37
2020-06-26 13:00:00 25.2 12 Noroeste 22 Noroeste 0 -- -- 44
2020-06-26 12:00:00 22.8 12 Noroeste 22 Noroeste 0 -- -- 52
2020-06-26 11:00:00 20.4 13 Noroeste 27 Noroeste 0 -- -- 59
2020-06-26 10:00:00 18.2 19 Noroeste 28 Noroeste 0 -- -- 67
2020-06-26 09:00:00 16 19 Noroeste 30 Noroeste 0 -- -- 76
2020-06-26 08:00:00 14.5 18 Noroeste 27 Noroeste 0 -- -- 82
2020-06-26 07:00:00 13.9 13 Noroeste 23 Noroeste 0 -- -- 84
2020-06-26 06:00:00 14.5 12 Noroeste 23 Noroeste 0 -- -- 81
2020-06-26 05:00:00 15.5 12 Noroeste 21 Oeste 0 -- -- 77
2020-06-26 04:00:00 17.2 11 Noroeste 21 Noroeste 0 -- -- 70
2020-06-26 03:00:00 19.1 14 Noroeste 25 Noroeste 0 -- -- 64
2020-06-26 02:00:00 20.7 12 Noroeste 22 Noroeste 0 -- -- 57
2020-06-26 01:00:00 21.8 16 Noroeste 31 Noroeste 0 -- -- 52
2020-06-26 00:00:00 23.4 22 Noroeste 32 Noroeste 0 -- -- 43
2020-06-25 23:00:00 25.2 21 Noroeste 34 Noroeste 0 -- -- 33
2020-06-25 22:00:00 27.5 22 Noroeste 40 Noroeste 0 -- -- 33
2020-06-25 21:00:00 29.6 24 Noroeste 41 Noroeste 0 -- -- 32
2020-06-25 20:00:00 31.8 19 Noroeste 41 Oeste 0 -- -- 32
2020-06-25 19:00:00 33.3 22 Noroeste 36 Oeste 0 -- -- 33
2020-06-25 18:00:00 34.2 14 Noroeste 32 Sur 0 -- -- 27
2020-06-25 17:00:00 34.4 13 Noroeste 28 Sudoeste 0 -- -- 27
2020-06-25 16:00:00 33.8 9 Sudoeste 33 Sudeste 0 -- -- 27
2020-06-25 15:00:00 32.8 18 Sudoeste 44 Oeste 0 -- -- 27
2020-06-25 14:00:00 32.4 11 Oeste 32 Oeste 0 -- -- 29
2020-06-25 13:00:00 30.9 11 Oeste 21 Oeste 0 -- -- 31
2020-06-25 12:00:00 29.3 6 Sur 13 Oeste 0 -- -- 36
2020-06-25 11:00:00 26.8 3 Sudoeste 11 Oeste 0 -- -- 44
2020-06-25 10:00:00 23.7 2 Este 9 Noroeste 0 -- -- 54
2020-06-25 09:00:00 21.6 6 Nordeste 9 Norte 0 -- -- 62
2020-06-25 08:00:00 19.5 5 Nordeste 10 Norte 0 -- -- 66
2020-06-25 07:00:00 19.2 4 Norte 9 Norte 0 -- -- 66
2020-06-25 06:00:00 20.3 5 Norte 9 Norte 0 -- -- 61
2020-06-25 05:00:00 21.7 4 Nordeste 7 Oeste 0 -- -- 52
2020-06-25 04:00:00 23.2 4 Noroeste 10 Oeste 0 -- -- 50
2020-06-25 03:00:00 24 9 Oeste 14 Oeste 0 -- -- 47
2020-06-25 02:00:00 25.2 9 Oeste 19 Noroeste 0 -- -- 41
2020-06-25 01:00:00 26.1 10 Noroeste 21 Noroeste 0 -- -- 38
2020-06-25 00:00:00 27 12 Noroeste 20 Noroeste 0 -- -- 41
2020-06-24 23:00:00 28.4 12 Noroeste 18 Noroeste 0 -- -- 39
2020-06-24 22:00:00 30.1 15 Norte 26 Nordeste 0 -- -- 36
2020-06-24 21:00:00 31.6 17 Norte 28 Norte 0 -- -- 33
2020-06-24 20:00:00 33.1 20 Norte 29 Norte 0 -- -- 31
2020-06-24 19:00:00 34.6 16 Norte 30 Norte 0 -- -- 29
2020-06-24 18:00:00 34.3 16 Norte 39 Norte 0 -- -- 30
2020-06-24 17:00:00 33.8 19 Norte 35 Nordeste 0 -- -- 32
2020-06-24 16:00:00 34 17 Nordeste 27 Norte 0 -- -- 33
2020-06-24 15:00:00 33.4 11 Oeste 30 Norte 0 -- -- 32
2020-06-24 14:00:00 31.9 9 Noroeste 19 Norte 0 -- -- 34
2020-06-24 13:00:00 30.7 6 Noroeste 15 Oeste 0 -- -- 39
2020-06-24 12:00:00 29.1 6 Norte 14 Noroeste 0 -- -- 40
2020-06-24 11:00:00 27.3 8 Norte 15 Noroeste 0 -- -- 45
2020-06-24 10:00:00 25.1 8 Norte 13 Norte 0 -- -- 52
2020-06-24 09:00:00 23.5 4 Norte 8 Norte 0 -- -- 60
2020-06-24 08:00:00 21.6 2 Noroeste 8 Noroeste 0 -- -- 64
2020-06-24 07:00:00 21.5 3 Oeste 16 Noroeste 0 -- -- 60
2020-06-24 06:00:00 22.3 6 Norte 9 Norte 0 -- -- 51
2020-06-24 05:00:00 23.3 5 Oeste 18 Oeste 0 -- -- 48
2020-06-24 04:00:00 24.8 14 Oeste 27 Sudoeste 0 -- -- 46
2020-06-24 03:00:00 25.7 15 Oeste 27 Sudoeste 0 -- -- 45
2020-06-24 02:00:00 27.2 17 Oeste 33 Oeste 0 -- -- 43
2020-06-24 01:00:00 28.2 19 Oeste 30 Oeste 0 -- -- 41
2020-06-24 00:00:00 29.4 14 Noroeste 25 Noroeste 0 -- -- 36
2020-06-23 23:00:00 30.8 15 Oeste 28 Oeste 0 -- -- 30
2020-06-23 22:00:00 32.5 13 Oeste 20 Oeste 0 -- -- 26
2020-06-23 21:00:00 34.9 13 Norte 26 Norte 0 -- -- 23
2020-06-23 20:00:00 36.3 15 Norte 27 Noroeste 0 -- -- 23
2020-06-23 19:00:00 38.9 13 Noroeste 23 Noroeste 0 -- -- 19
2020-06-23 18:00:00 38.8 6 Norte 21 Oeste 0 -- -- 18
2020-06-23 17:00:00 38.3 4 Sur 24 Sudoeste 0 -- -- 17
2020-06-23 16:00:00 38.1 10 Sudoeste 29 Sudoeste 0 -- -- 17
2020-06-23 15:00:00 37.3 9 Sudeste 29 Sur 0 -- -- 19
2020-06-23 14:00:00 36.7 6 Sudoeste 27 Sur 0 -- -- 18
2020-06-23 13:00:00 35.8 12 Sudoeste 26 Sudoeste 0 -- -- 21
2020-06-23 12:00:00 34.3 14 Sudoeste 31 Oeste 0 -- -- 24
2020-06-23 11:00:00 32 14 Sudoeste 24 Sudoeste 0 -- -- 28
2020-06-23 10:00:00 28.8 11 Sur 15 Sur 0 -- -- 33
2020-06-23 09:00:00 25 9 Sur 16 Sur 0 -- -- 36
2020-06-23 08:00:00 21.9 14 Sur 18 Sur 0 -- -- 38
2020-06-23 07:00:00 20.8 12 Sur 16 Sur 0 -- -- 38
2020-06-23 06:00:00 21.7 13 Sur 17 Sur 0 -- -- 36
2020-06-23 05:00:00 22.8 11 Sur 17 Sur 0 -- -- 33
2020-06-23 04:00:00 23.4 12 Sudoeste 18 Sur 0 -- -- 32
2020-06-23 03:00:00 24.5 9 Sur 23 Sudoeste 0 -- -- 29
2020-06-23 02:00:00 27.9 11 Oeste 23 Sudoeste 0 -- -- 25
2020-06-23 01:00:00 29.1 17 Sudoeste 23 Sudoeste 0 -- -- 24
2020-06-23 00:00:00 28.6 12 Sudoeste 23 Sur 0 -- -- 25
2020-06-22 23:00:00 30.1 6 Noroeste 15 Nordeste 0 -- -- 25
2020-06-22 22:00:00 32.4 12 Nordeste 19 Nordeste 0 -- -- 25
2020-06-22 21:00:00 35.2 13 Este 23 Nordeste 0 -- -- 20
2020-06-22 20:00:00 37 13 Este 24 Nordeste 0 -- -- 18
2020-06-22 19:00:00 37.8 13 Este 24 Nordeste 0 -- -- 19
2020-06-22 18:00:00 38.1 10 Este 23 Este 0 -- -- 19
2020-06-22 17:00:00 37.8 13 Nordeste 23 Norte 0 -- -- 20
2020-06-22 16:00:00 37.1 12 Nordeste 29 Este 0 -- -- 20
2020-06-22 15:00:00 36 11 Nordeste 23 Nordeste 0 -- -- 23
2020-06-22 14:00:00 34.4 7 Nordeste 17 Este 0 -- -- 26
2020-06-22 13:00:00 32.7 6 Este 18 Este 0 -- -- 32
2020-06-22 12:00:00 30 8 Este 14 Este 0 -- -- 38
2020-06-22 11:00:00 27.5 6 Este 11 Nordeste 0 -- -- 44
2020-06-22 10:00:00 24.8 4 Sudeste 10 Este 0 -- -- 55
2020-06-22 09:00:00 21.7 3 Noroeste 6 Noroeste 0 -- -- 65
2020-06-22 08:00:00 18.2 2 Oeste 5 Oeste 0 -- -- 74
2020-06-22 07:00:00 17.1 0 Calma 7 Oeste 0 -- -- 77
2020-06-22 06:00:00 19 4 Noroeste 11 Noroeste 0 -- -- 70
2020-06-22 05:00:00 19.9 5 Noroeste 12 Noroeste 0 -- -- 69
2020-06-22 04:00:00 20.5 7 Noroeste 17 Noroeste 0 -- -- 66
2020-06-22 03:00:00 21.5 6 Noroeste 14 Noroeste 0 -- -- 62
2020-06-22 02:00:00 22.7 8 Noroeste 17 Noroeste 0 -- -- 57
2020-06-22 01:00:00 23.7 12 Noroeste 17 Noroeste 0 -- -- 55
2020-06-22 00:00:00 25 11 Noroeste 23 Noroeste 0 -- -- 44
2020-06-21 23:00:00 26.8 10 Noroeste 14 Norte 0 -- -- 27
2020-06-21 22:00:00 29.1 8 Norte 13 Norte 0 -- -- 23
2020-06-21 21:00:00 31.3 9 Norte 19 Norte 0 -- -- 21
2020-06-21 20:00:00 32.7 11 Norte 20 Norte 0 -- -- 22
2020-06-21 19:00:00 33.2 10 Norte 25 Norte 0 -- -- 21
2020-06-21 18:00:00 32.8 8 Nordeste 23 Nordeste 0 -- -- 24
2020-06-21 17:00:00 32.3 13 Nordeste 25 Nordeste 0 -- -- 23
2020-06-21 16:00:00 31.6 8 Norte 22 Norte 0 -- -- 28
2020-06-21 15:00:00 30.5 10 Norte 23 Norte 0 -- -- 32
2020-06-21 14:00:00 28.5 10 Norte 22 Norte 0 -- -- 38
2020-06-21 13:00:00 27 10 Norte 19 Norte 0 -- -- 43
2020-06-21 12:00:00 24.2 7 Norte 14 Noroeste 0 -- -- 50
2020-06-21 11:00:00 21.5 6 Noroeste 13 Noroeste 0 -- -- 57
2020-06-21 10:00:00 19.2 8 Noroeste 13 Noroeste 0 -- -- 65
2020-06-21 09:00:00 17.2 9 Noroeste 16 Noroeste 0 -- -- 72
2020-06-21 08:00:00 14.9 12 Noroeste 17 Noroeste 0 -- -- 80
2020-06-21 07:00:00 14 10 Noroeste 16 Noroeste 0 -- -- 82
2020-06-21 06:00:00 15 11 Noroeste 19 Noroeste 0 -- -- 77
2020-06-21 05:00:00 16.2 7 Noroeste 18 Noroeste 0 -- -- 71
2020-06-21 04:00:00 17.6 9 Noroeste 17 Oeste 0 -- -- 68
2020-06-21 03:00:00 18.5 12 Noroeste 26 Noroeste 0 -- -- 65
2020-06-21 02:00:00 19.8 18 Noroeste 35 Noroeste 0 -- -- 61
2020-06-21 01:00:00 21.4 23 Noroeste 33 Noroeste 0 -- -- 54
2020-06-21 00:00:00 23.2 17 Noroeste 31 Norte 0 -- -- 48
2020-06-20 23:00:00 25.2 18 Norte 30 Norte 0 -- -- 38
2020-06-20 22:00:00 27.4 19 Norte 31 Norte 0 -- -- 31
2020-06-20 21:00:00 29.4 20 Norte 34 Norte 0 -- -- 28
2020-06-20 20:00:00 31.7 15 Norte 34 Noroeste 0 -- -- 25
2020-06-20 19:00:00 32.7 17 Noroeste 33 Noroeste 0 -- -- 24
2020-06-20 18:00:00 32.1 13 Noroeste 28 Noroeste 0 -- -- 24
2020-06-20 17:00:00 32.1 14 Norte 32 Norte 0 -- -- 23
2020-06-20 16:00:00 32.3 8 Noroeste 28 Noroeste 0 -- -- 24
2020-06-20 15:00:00 31.1 12 Noroeste 28 Noroeste 0 -- -- 27
2020-06-20 14:00:00 29.9 14 Norte 25 Noroeste 0 -- -- 28
2020-06-20 13:00:00 28 10 Norte 19 Norte 0 -- -- 32
2020-06-20 12:00:00 26.1 9 Nordeste 16 Norte 0 -- -- 37
2020-06-20 11:00:00 23.9 3 Sudoeste 7 Sudoeste 0 -- -- 40
2020-06-20 10:00:00 20.5 3 Norte 6 Nordeste 0 -- -- 51
2020-06-20 09:00:00 18.1 2 Norte 5 Noroeste 0 -- -- 58
2020-06-20 08:00:00 14.7 0 Calma 5 Sur 0 -- -- 63
2020-06-20 07:00:00 12.7 3 Sudoeste 4 Sudoeste 0 -- -- 65
2020-06-20 06:00:00 13.4 3 Oeste 5 Oeste 0 -- -- 65
2020-06-20 05:00:00 14.2 5 Oeste 11 Oeste 0 -- -- 62
2020-06-20 04:00:00 16.4 4 Noroeste 18 Noroeste 0 -- -- 59
2020-06-20 03:00:00 17.5 11 Noroeste 19 Noroeste 0 -- -- 56
2020-06-20 02:00:00 18.8 12 Noroeste 22 Noroeste 0 -- -- 52
2020-06-20 01:00:00 20.3 15 Noroeste 22 Noroeste 0 -- -- 48
2020-06-20 00:00:00 21.7 15 Noroeste 24 Noroeste 0 -- -- 36
2020-06-19 23:00:00 23.1 10 Noroeste 17 Norte 0 -- -- 31
2020-06-19 22:00:00 25.6 11 Noroeste 23 Noroeste 0 -- -- 28
2020-06-19 21:00:00 27.6 14 Noroeste 26 Norte 0 -- -- 26
2020-06-19 20:00:00 29.5 17 Noroeste 31 Noroeste 0 -- -- 25
2020-06-19 19:00:00 30.1 16 Noroeste 30 Noroeste 0 -- -- 23
2020-06-19 18:00:00 30 18 Noroeste 35 Noroeste 0 -- -- 24
2020-06-19 17:00:00 29.7 13 Norte 36 Norte 0 -- -- 25
2020-06-19 16:00:00 29.1 11 Noroeste 35 Noroeste 0 -- -- 29
2020-06-19 15:00:00 27.5 11 Noroeste 27 Norte 0 -- -- 32
2020-06-19 14:00:00 25.9 10 Noroeste 24 Noroeste 0 -- -- 33
2020-06-19 13:00:00 24.2 8 Noroeste 18 Noroeste 0 -- -- 38
2020-06-19 12:00:00 21.7 8 Noroeste 15 Noroeste 0 -- -- 44
2020-06-19 11:00:00 19.9 6 Noroeste 16 Noroeste 0 -- -- 53
2020-06-19 10:00:00 17.2 8 Noroeste 16 Noroeste 0 -- -- 61
2020-06-19 09:00:00 15.2 10 Noroeste 18 Noroeste 0 -- -- 68
2020-06-19 08:00:00 13.5 13 Noroeste 23 Noroeste 0 -- -- 74
2020-06-19 07:00:00 12.8 14 Noroeste 23 Noroeste 0 -- -- 76
2020-06-19 06:00:00 13.6 13 Noroeste 23 Noroeste 0 -- -- 74
2020-06-19 05:00:00 14.2 11 Noroeste 22 Noroeste 0 -- -- 71
2020-06-19 04:00:00 15.1 11 Noroeste 22 Noroeste 0 -- -- 66
2020-06-19 03:00:00 16.1 10 Noroeste 24 Noroeste 0 -- -- 61
2020-06-19 02:00:00 17.2 18 Noroeste 32 Noroeste 0 -- -- 58
2020-06-19 01:00:00 18.6 21 Noroeste 35 Noroeste 0 -- -- 53
2020-06-19 00:00:00 20.3 24 Noroeste 37 Noroeste 0 -- -- 49
2020-06-18 23:00:00 22.4 23 Noroeste 39 Noroeste 0 -- -- 47
2020-06-18 22:00:00 24.4 18 Noroeste 31 Noroeste 0 -- -- 38
2020-06-18 21:00:00 26.3 17 Norte 30 Norte 0 -- -- 36
2020-06-18 20:00:00 28.3 13 Noroeste 27 Noroeste 0 -- -- 30
2020-06-18 19:00:00 28.8 14 Noroeste 29 Norte 0 -- -- 28
2020-06-18 18:00:00 28.9 15 Noroeste 33 Noroeste 0 -- -- 26
2020-06-18 17:00:00 28.3 12 Noroeste 24 Noroeste 0 -- -- 27
2020-06-18 16:00:00 27.6 9 Norte 25 Noroeste 0 -- -- 29
2020-06-18 15:00:00 26.5 10 Noroeste 22 Oeste 0 -- -- 31
2020-06-18 14:00:00 25.1 7 Oeste 17 Oeste 0 -- -- 34
2020-06-18 13:00:00 23.3 6 Noroeste 19 Noroeste 0 -- -- 43
2020-06-18 12:00:00 20.7 8 Noroeste 16 Norte 0 -- -- 49
2020-06-18 11:00:00 19.1 5 Noroeste 10 Noroeste 0 -- -- 56
2020-06-18 10:00:00 16.8 5 Oeste 15 Noroeste 0 -- -- 64
2020-06-18 09:00:00 15.4 9 Noroeste 15 Noroeste 0 -- -- 70
2020-06-18 08:00:00 13.4 7 Noroeste 14 Noroeste 0 -- -- 76
2020-06-18 07:00:00 12.6 9 Noroeste 18 Noroeste 0 -- -- 78
2020-06-18 06:00:00 13.2 8 Noroeste 18 Noroeste 0 -- -- 75
2020-06-18 05:00:00 14 7 Noroeste 21 Noroeste 0 -- -- 71
2020-06-18 04:00:00 14.7 8 Noroeste 22 Noroeste 0 -- -- 67
2020-06-18 03:00:00 15.8 10 Noroeste 24 Noroeste 0 -- -- 63
2020-06-18 02:00:00 16.9 17 Noroeste 27 Noroeste 0 -- -- 60
2020-06-18 01:00:00 18 12 Noroeste 18 Norte 0 -- -- 57
2020-06-18 00:00:00 19.2 12 Noroeste 23 Noroeste 0 -- -- 52
2020-06-17 23:00:00 20.5 10 Norte 21 Norte 0 -- -- 47
2020-06-17 22:00:00 22.1 13 Norte 24 Noroeste 0 -- -- 43
2020-06-17 21:00:00 23.6 16 Norte 33 Noroeste 0 -- -- 39
2020-06-17 20:00:00 25.3 17 Noroeste 33 Noroeste 0 -- -- 36
2020-06-17 19:00:00 25.9 19 Noroeste 35 Noroeste 0 -- -- 34
2020-06-17 18:00:00 26.1 18 Noroeste 31 Noroeste 0 -- -- 32
2020-06-17 17:00:00 25.5 18 Norte 36 Noroeste 0 -- -- 30
2020-06-17 16:00:00 25.6 19 Noroeste 36 Norte 0 -- -- 31
2020-06-17 15:00:00 24.7 17 Noroeste 38 Oeste 0 -- -- 35
2020-06-17 14:00:00 23 18 Noroeste 33 Noroeste 0 -- -- 39
2020-06-17 13:00:00 22.4 13 Noroeste 30 Noroeste 0 -- -- 44
2020-06-17 12:00:00 20.3 15 Noroeste 32 Noroeste 0 -- -- 49
2020-06-17 11:00:00 18.9 14 Noroeste 26 Noroeste 0 -- -- 53
2020-06-17 10:00:00 17.2 13 Noroeste 26 Noroeste 0 -- -- 59
2020-06-17 09:00:00 15.5 15 Noroeste 23 Noroeste 0 -- -- 67
2020-06-17 08:00:00 13.7 8 Noroeste 18 Noroeste 0 -- -- 73
2020-06-17 07:00:00 12.6 9 Noroeste 14 Noroeste 0 -- -- 76
2020-06-17 06:00:00 13 7 Noroeste 17 Noroeste 0 -- -- 73
2020-06-17 05:00:00 13.9 12 Noroeste 19 Noroeste 0 -- -- 71
2020-06-17 04:00:00 14.8 13 Noroeste 26 Noroeste 0 -- -- 69
2020-06-17 03:00:00 15.8 17 Noroeste 29 Noroeste 0 -- -- 68
2020-06-17 02:00:00 17 17 Noroeste 30 Noroeste 0 -- -- 66
2020-06-17 01:00:00 18.4 19 Norte 31 Noroeste 0 -- -- 64
2020-06-17 00:00:00 19.7 18 Norte 35 Norte 0 -- -- 60
2020-06-16 23:00:00 21.1 18 Norte 36 Noroeste 0 -- -- 54
2020-06-16 22:00:00 22.7 19 Norte 36 Norte 0 -- -- 49
2020-06-16 21:00:00 24.3 21 Norte 38 Noroeste 0 -- -- 44
2020-06-16 20:00:00 25.9 24 Noroeste 39 Noroeste 0 -- -- 42
2020-06-16 19:00:00 25.5 21 Noroeste 37 Noroeste 0 -- -- 45
2020-06-16 18:00:00 26.6 19 Noroeste 38 Noroeste 0 -- -- 43
2020-06-16 17:00:00 26.1 21 Noroeste 41 Noroeste 0 -- -- 44
2020-06-16 16:00:00 25.5 21 Noroeste 40 Oeste 0 -- -- 46
2020-06-16 15:00:00 26 19 Noroeste 40 Noroeste 0 -- -- 44
2020-06-16 14:00:00 25.1 21 Noroeste 41 Norte 0 -- -- 46
2020-06-16 13:00:00 24 24 Noroeste 37 Noroeste 0 -- -- 49
2020-06-16 12:00:00 23 20 Noroeste 36 Noroeste 0 -- -- 43
2020-06-16 11:00:00 20.9 14 Noroeste 24 Noroeste 0 -- -- 54
2020-06-16 10:00:00 18.8 10 Noroeste 21 Noroeste 0 -- -- 62
2020-06-16 09:00:00 16.2 10 Noroeste 18 Noroeste 0 -- -- 73
2020-06-16 08:00:00 13.8 9 Noroeste 15 Noroeste 0 -- -- 81
2020-06-16 07:00:00 13.5 10 Noroeste 18 Noroeste 0 -- -- 80
2020-06-16 06:00:00 14.3 10 Noroeste 21 Noroeste 0 -- -- 77
2020-06-16 05:00:00 15.2 12 Noroeste 26 Noroeste 0 -- -- 72
2020-06-16 04:00:00 16.1 18 Noroeste 27 Noroeste 0 -- -- 70
2020-06-16 03:00:00 17.6 20 Noroeste 31 Noroeste 0 -- -- 65
2020-06-16 02:00:00 18.7 21 Noroeste 33 Noroeste 0 -- -- 62
2020-06-16 01:00:00 19.5 19 Noroeste 31 Noroeste 0 -- -- 56
2020-06-16 00:00:00 20.3 19 Noroeste 31 Noroeste 0 -- -- 51
2020-06-15 23:00:00 20.9 21 Noroeste 30 Noroeste 0 -- -- 48
2020-06-15 22:00:00 22 19 Noroeste 30 Noroeste 0 -- -- 44
2020-06-15 21:00:00 23.4 19 Noroeste 37 Noroeste 0 -- -- 40
2020-06-15 20:00:00 25.6 19 Noroeste 33 Noroeste 0 -- -- 36
2020-06-15 19:00:00 25.7 17 Noroeste 32 Noroeste 0 -- -- 34
2020-06-15 18:00:00 26.3 20 Noroeste 39 Oeste 0 -- -- 33
2020-06-15 17:00:00 27 18 Noroeste 35 Oeste 0 -- -- 33
2020-06-15 16:00:00 26.8 16 Noroeste 40 Noroeste 0 -- -- 34
2020-06-15 15:00:00 25.5 15 Noroeste 30 Noroeste 0 -- -- 36
2020-06-15 14:00:00 24.3 14 Noroeste 28 Noroeste 0 -- -- 38
2020-06-15 13:00:00 23.4 14 Noroeste 28 Noroeste 0 -- -- 41
2020-06-15 12:00:00 21.9 12 Noroeste 27 Noroeste 0 -- -- 43
2020-06-15 11:00:00 20 12 Noroeste 22 Noroeste 0 -- -- 51
2020-06-15 10:00:00 17.7 9 Noroeste 17 Oeste 0 -- -- 56
2020-06-15 09:00:00 15.9 10 Noroeste 19 Oeste 0 -- -- 63
2020-06-15 08:00:00 13.9 10 Oeste 14 Oeste 0 -- -- 69
2020-06-15 07:00:00 12.6 9 Oeste 17 Oeste 0 -- -- 73
2020-06-15 06:00:00 13.1 9 Oeste 16 Noroeste 0 -- -- 74
2020-06-15 05:00:00 13.7 5 Noroeste 17 Noroeste 0 -- -- 71
2020-06-15 04:00:00 14.3 9 Noroeste 22 Noroeste 0 -- -- 69
2020-06-15 03:00:00 15.4 12 Noroeste 19 Noroeste 0 -- -- 66
2020-06-15 02:00:00 16.5 12 Noroeste 20 Noroeste 0 -- -- 62
2020-06-15 01:00:00 17.5 14 Noroeste 23 Noroeste 0 -- -- 57
2020-06-15 00:00:00 18.6 12 Noroeste 22 Noroeste 0 -- -- 52
2020-06-14 23:00:00 20 12 Noroeste 23 Norte 0 -- -- 46
2020-06-14 22:00:00 21.5 16 Norte 30 Norte 0 -- -- 41
2020-06-14 21:00:00 23.3 18 Norte 35 Noroeste 0 -- -- 36
2020-06-14 20:00:00 25.3 18 Noroeste 34 Noroeste 0 -- -- 32
2020-06-14 19:00:00 26.2 21 Norte 36 Norte 0 -- -- 31
2020-06-14 18:00:00 26.8 18 Noroeste 36 Noroeste 0 -- -- 29
2020-06-14 17:00:00 26.5 14 Noroeste 35 Noroeste 0 -- -- 31
2020-06-14 16:00:00 26.6 17 Noroeste 37 Noroeste 0 -- -- 30
2020-06-14 15:00:00 25.9 18 Noroeste 31 Noroeste 0 -- -- 33
2020-06-14 14:00:00 23.9 15 Oeste 31 Oeste 0 -- -- 37
2020-06-14 13:00:00 23.6 14 Noroeste 29 Noroeste 0 -- -- 40
2020-06-14 12:00:00 22.3 10 Noroeste 20 Noroeste 0 -- -- 42
2020-06-14 11:00:00 20.2 6 Noroeste 14 Noroeste 0 -- -- 50
2020-06-14 10:00:00 18.5 7 Noroeste 12 Noroeste 0 -- -- 59
2020-06-14 09:00:00 16.4 7 Noroeste 14 Noroeste 0 -- -- 67
2020-06-14 08:00:00 13.5 3 Noroeste 8 Noroeste 0 -- -- 77
2020-06-14 07:00:00 12.1 5 Noroeste 9 Oeste 0 -- -- 79
2020-06-14 06:00:00 12.2 7 Oeste 9 Oeste 0 -- -- 77
2020-06-14 05:00:00 13.3 4 Noroeste 10 Oeste 0 -- -- 73
2020-06-14 04:00:00 13.9 9 Noroeste 12 Noroeste 0 -- -- 71
2020-06-14 03:00:00 14.5 4 Noroeste 12 Noroeste 0 -- -- 67
2020-06-14 02:00:00 15.3 8 Noroeste 17 Noroeste 0 -- -- 64
2020-06-14 01:00:00 16 12 Noroeste 17 Norte 0 -- -- 59
2020-06-14 00:00:00 17.1 12 Norte 18 Norte 0 -- -- 52
2020-06-13 23:00:00 18.2 10 Noroeste 12 Noroeste 0 -- -- 46
2020-06-13 22:00:00 19.8 8 Noroeste 17 Noroeste 0 -- -- 41
2020-06-13 21:00:00 21.3 10 Noroeste 30 Noroeste 0 -- -- 37
2020-06-13 20:00:00 22.8 16 Noroeste 28 Noroeste 0 -- -- 34
2020-06-13 19:00:00 23.3 16 Noroeste 27 Oeste 0 -- -- 33
2020-06-13 18:00:00 22.9 12 Norte 27 Oeste 0 -- -- 35
2020-06-13 17:00:00 22.8 5 Este 27 Oeste 0 -- -- 36
2020-06-13 16:00:00 22.9 13 Norte 23 Noroeste 0 -- -- 37
2020-06-13 15:00:00 22 8 Noroeste 29 Oeste 0 -- -- 37
2020-06-13 14:00:00 21.1 10 Norte 27 Noroeste 0 -- -- 40
2020-06-13 13:00:00 21 7 Norte 19 Noroeste 0 -- -- 43
2020-06-13 12:00:00 19.1 8 Noroeste 21 Noroeste 0 -- -- 51
2020-06-13 11:00:00 17.9 10 Noroeste 20 Noroeste 0 -- -- 60
2020-06-13 10:00:00 16.1 8 Noroeste 15 Noroeste 0 -- -- 71
2020-06-13 09:00:00 14.2 9 Noroeste 16 Noroeste 0 -- -- 80
2020-06-13 08:00:00 12.2 5 Noroeste 12 Noroeste 0 -- -- 87
2020-06-13 07:00:00 11 9 Noroeste 15 Noroeste 0 -- -- 89
2020-06-13 06:00:00 11.5 8 Noroeste 16 Noroeste 0 -- -- 86
2020-06-13 05:00:00 11.8 9 Noroeste 18 Noroeste 0 -- -- 84
2020-06-13 04:00:00 12.4 9 Noroeste 20 Noroeste 0 -- -- 81
2020-06-13 03:00:00 12.9 8 Noroeste 19 Noroeste 0 -- -- 79
2020-06-13 02:00:00 13.6 13 Noroeste 24 Noroeste 0 -- -- 76
2020-06-13 01:00:00 14.6 12 Noroeste 27 Noroeste 0 -- -- 73
2020-06-13 00:00:00 15.7 16 Noroeste 31 Noroeste 0 -- -- 66
2020-06-12 23:00:00 15.9 17 Noroeste 30 Noroeste 0 -- -- 63
2020-06-12 22:00:00 16.8 18 Noroeste 33 Noroeste 0 -- -- 59
2020-06-12 21:00:00 17.5 21 Noroeste 39 Noroeste 0 -- -- 58
2020-06-12 20:00:00 19.5 20 Noroeste 35 Noroeste 0 -- -- 51
2020-06-12 19:00:00 20.1 24 Noroeste 41 Oeste 0 -- -- 48
2020-06-12 18:00:00 20.5 16 Noroeste 33 Noroeste 0 -- -- 45
2020-06-12 17:00:00 20.5 21 Oeste 36 Oeste 0 -- -- 46
2020-06-12 16:00:00 19.3 20 Noroeste 39 Oeste 0 -- -- 48
2020-06-12 15:00:00 18.8 19 Oeste 34 Oeste 0 -- -- 51
2020-06-12 14:00:00 17.5 20 Oeste 34 Noroeste 0 -- -- 53
2020-06-12 13:00:00 17.7 15 Noroeste 34 Noroeste 0 -- -- 53
2020-06-12 12:00:00 16.8 17 Noroeste 35 Noroeste 0 -- -- 56
2020-06-12 11:00:00 16.9 20 Noroeste 35 Norte 0 -- -- 58
2020-06-12 10:00:00 16.3 19 Noroeste 33 Noroeste 0 -- -- 60
2020-06-12 09:00:00 14.6 19 Oeste 32 Oeste 0 -- -- 67
2020-06-12 08:00:00 12.6 13 Noroeste 26 Oeste 0 -- -- 73
2020-06-12 07:00:00 11.9 14 Noroeste 26 Oeste 0 -- -- 76
2020-06-12 06:00:00 11.7 16 Noroeste 26 Noroeste 0 -- -- 74
2020-06-12 05:00:00 12.5 16 Noroeste 29 Noroeste 0 -- -- 71
2020-06-12 04:00:00 13.3 20 Noroeste 31 Noroeste 0 -- -- 69
2020-06-12 03:00:00 13.3 17 Noroeste 34 Norte 0 -- -- 66
2020-06-12 02:00:00 14.3 21 Noroeste 39 Noroeste 0 -- -- 67
2020-06-12 01:00:00 15.4 18 Noroeste 39 Noroeste 0 -- -- 65
2020-06-12 00:00:00 16.1 20 Noroeste 37 Noroeste 0 -- -- 64
2020-06-11 23:00:00 17.2 29 Noroeste 46 Noroeste 0 -- -- 60
2020-06-11 22:00:00 17.6 24 Noroeste 43 Noroeste 0 -- -- 66
2020-06-11 21:00:00 18.7 31 Noroeste 46 Noroeste 0 -- -- 64
2020-06-11 20:00:00 19.1 30 Noroeste 54 Norte 0 -- -- 65
2020-06-11 19:00:00 21.6 26 Noroeste 43 Noroeste 0 -- -- 53
2020-06-11 18:00:00 23.7 24 Noroeste 46 Noroeste 0 -- -- 48
2020-06-11 17:00:00 22.4 28 Noroeste 49 Noroeste 0 -- -- 50
2020-06-11 16:00:00 24.3 31 Noroeste 53 Noroeste 0 -- -- 44
2020-06-11 15:00:00 24.3 24 Noroeste 51 Noroeste 0 -- -- 42
2020-06-11 14:00:00 22.9 30 Noroeste 48 Noroeste 0 -- -- 49
2020-06-11 13:00:00 22.8 22 Noroeste 41 Noroeste 0 -- -- 47
2020-06-11 12:00:00 20.2 21 Noroeste 37 Oeste 0 -- -- 49
2020-06-11 11:00:00 18 18 Noroeste 32 Noroeste 0 -- -- 55
2020-06-11 10:00:00 15.7 19 Noroeste 30 Noroeste 0 -- -- 67
2020-06-11 09:00:00 14 17 Noroeste 31 Noroeste 0 -- -- 74
2020-06-11 08:00:00 12.6 17 Noroeste 33 Oeste 0 -- -- 80
2020-06-11 07:00:00 11.8 16 Noroeste 29 Oeste 0 -- -- 82
2020-06-11 06:00:00 12.3 11 Noroeste 27 Oeste 0 -- -- 78
2020-06-11 05:00:00 13.3 13 Noroeste 26 Noroeste 0 -- -- 71
2020-06-11 04:00:00 14 14 Oeste 25 Oeste 0 -- -- 68
2020-06-11 03:00:00 15.3 17 Noroeste 27 Oeste 0 -- -- 65
2020-06-11 02:00:00 16.6 14 Noroeste 31 Noroeste 0 -- -- 60
2020-06-11 01:00:00 18.1 18 Noroeste 35 Noroeste 0 -- -- 57
2020-06-11 00:00:00 20 21 Noroeste 33 Noroeste 0 -- -- 52